sensor_id;sensor_type;location;lat;lon;timestamp;temperature;humidity
16160;DHT22;8185;57.818;15.224;2023-02-22T00:01:31;-1.10;99.90
16160;DHT22;8185;57.818;15.224;2023-02-22T00:04:04;-1.10;99.90
16160;DHT22;8185;57.818;15.224;2023-02-22T00:06:32;-1.20;99.90
16160;DHT22;8185;57.818;15.224;2023-02-22T00:08:59;-1.10;99.90
16160;DHT22;8185;57.818;15.224;2023-02-22T00:11:27;-1.20;99.90
16160;DHT22;8185;57.818;15.224;2023-02-22T00:13:56;-1.20;99.90
16160;DHT22;8185;57.818;15.224;2023-02-22T00:16:25;-1.10;99.90
16160;DHT22;8185;57.818;15.224;2023-02-22T00:18:52;-1.20;99.90
16160;DHT22;8185;57.818;15.224;2023-02-22T00:21:20;-1.20;99.90
16160;DHT22;8185;57.818;15.224;2023-02-22T00:23:48;-1.30;99.90
16160;DHT22;8185;57.818;15.224;2023-02-22T00:26:17;-1.20;99.90
16160;DHT22;8185;57.818;15.224;2023-02-22T00:28:47;-1.20;99.90
16160;DHT22;8185;57.818;15.224;2023-02-22T00:31:14;-1.20;99.90
16160;DHT22;8185;57.818;15.224;2023-02-22T00:33:43;-1.20;99.90
16160;DHT22;8185;57.818;15.224;2023-02-22T00:36:11;-1.20;99.90
16160;DHT22;8185;57.818;15.224;2023-02-22T00:38:40;-1.20;99.90
16160;DHT22;8185;57.818;15.224;2023-02-22T00:41:07;-1.20;99.90
16160;DHT22;8185;57.818;15.224;2023-02-22T00:43:35;-1.20;99.90
16160;DHT22;8185;57.818;15.224;2023-02-22T00:46:03;-1.20;99.90
16160;DHT22;8185;57.818;15.224;2023-02-22T00:48:30;-1.10;99.90
16160;DHT22;8185;57.818;15.224;2023-02-22T00:50:58;-1.20;99.90
16160;DHT22;8185;57.818;15.224;2023-02-22T00:53:26;-1.10;99.90
16160;DHT22;8185;57.818;15.224;2023-02-22T00:55:53;-1.20;99.90
16160;DHT22;8185;57.818;15.224;2023-02-22T00:58:21;-1.20;99.90
16160;DHT22;8185;57.818;15.224;2023-02-22T01:00:49;-1.20;99.90
16160;DHT22;8185;57.818;15.224;2023-02-22T01:03:19;-1.20;99.90
16160;DHT22;8185;57.818;15.224;2023-02-22T01:05:46;-1.10;99.90
16160;DHT22;8185;57.818;15.224;2023-02-22T01:08:16;-1.20;99.90
16160;DHT22;8185;57.818;15.224;2023-02-22T01:10:43;-1.20;99.90
16160;DHT22;8185;57.818;15.224;2023-02-22T01:13:11;-1.20;99.90
16160;DHT22;8185;57.818;15.224;2023-02-22T01:15:41;-1.10;99.90
16160;DHT22;8185;57.818;15.224;2023-02-22T01:18:10;-1.20;99.90
16160;DHT22;8185;57.818;15.224;2023-02-22T01:20:41;-1.30;99.90
16160;DHT22;8185;57.818;15.224;2023-02-22T01:23:13;-1.30;99.90
16160;DHT22;8185;57.818;15.224;2023-02-22T01:25:43;-1.40;99.90
16160;DHT22;8185;57.818;15.224;2023-02-22T01:28:10;-1.30;99.90
16160;DHT22;8185;57.818;15.224;2023-02-22T01:30:38;-1.30;99.90
16160;DHT22;8185;57.818;15.224;2023-02-22T01:33:06;-1.40;99.90
16160;DHT22;8185;57.818;15.224;2023-02-22T01:35:35;-1.30;99.90
16160;DHT22;8185;57.818;15.224;2023-02-22T01:38:05;-1.30;99.90
16160;DHT22;8185;57.818;15.224;2023-02-22T01:40:35;-1.30;99.90
16160;DHT22;8185;57.818;15.224;2023-02-22T01:43:13;-1.40;99.90
16160;DHT22;8185;57.818;15.224;2023-02-22T01:45:52;-1.40;99.90
16160;DHT22;8185;57.818;15.224;2023-02-22T01:48:24;-1.30;99.90
16160;DHT22;8185;57.818;15.224;2023-02-22T01:50:56;-1.30;99.90
16160;DHT22;8185;57.818;15.224;2023-02-22T01:53:29;-1.40;99.90
16160;DHT22;8185;57.818;15.224;2023-02-22T01:55:58;-1.40;99.90
16160;DHT22;8185;57.818;15.224;2023-02-22T01:58:28;-1.40;99.90
16160;DHT22;8185;57.818;15.224;2023-02-22T02:00:56;-1.30;99.90
16160;DHT22;8185;57.818;15.224;2023-02-22T02:03:27;-1.30;99.90
16160;DHT22;8185;57.818;15.224;2023-02-22T02:05:57;-1.30;99.90
16160;DHT22;8185;57.818;15.224;2023-02-22T02:08:32;-1.30;99.90
16160;DHT22;8185;57.818;15.224;2023-02-22T02:11:03;-1.30;99.90
16160;DHT22;8185;57.818;15.224;2023-02-22T02:13:33;-1.30;99.90
16160;DHT22;8185;57.818;15.224;2023-02-22T02:16:01;-1.30;99.90
16160;DHT22;8185;57.818;15.224;2023-02-22T02:18:28;-1.40;99.90
16160;DHT22;8185;57.818;15.224;2023-02-22T02:21:24;-1.40;99.90
16160;DHT22;8185;57.818;15.224;2023-02-22T02:24:28;-1.40;99.90
16160;DHT22;8185;57.818;15.224;2023-02-22T02:27:09;-1.40;99.90
16160;DHT22;8185;57.818;15.224;2023-02-22T02:32:55;-1.40;99.90
16160;DHT22;8185;57.818;15.224;2023-02-22T02:35:36;-1.40;99.90
16160;DHT22;8185;57.818;15.224;2023-02-22T02:38:11;-1.40;99.90
16160;DHT22;8185;57.818;15.224;2023-02-22T02:40:43;-1.40;99.90
16160;DHT22;8185;57.818;15.224;2023-02-22T02:43:20;-1.40;99.90
16160;DHT22;8185;57.818;15.224;2023-02-22T02:45:52;-1.40;99.90
16160;DHT22;8185;57.818;15.224;2023-02-22T02:48:25;-1.40;99.90
16160;DHT22;8185;57.818;15.224;2023-02-22T02:50:55;-1.40;99.90
16160;DHT22;8185;57.818;15.224;2023-02-22T02:53:28;-1.40;99.90
16160;DHT22;8185;57.818;15.224;2023-02-22T02:55:57;-1.50;99.90
16160;DHT22;8185;57.818;15.224;2023-02-22T02:58:25;-1.40;99.90
16160;DHT22;8185;57.818;15.224;2023-02-22T03:00:55;-1.40;99.90
16160;DHT22;8185;57.818;15.224;2023-02-22T03:03:43;-1.50;99.90
16160;DHT22;8185;57.818;15.224;2023-02-22T03:09:25;-1.50;99.90
16160;DHT22;8185;57.818;15.224;2023-02-22T03:12:03;-1.60;99.90
16160;DHT22;8185;57.818;15.224;2023-02-22T03:14:35;-1.60;99.90
16160;DHT22;8185;57.818;15.224;2023-02-22T03:17:06;-1.60;99.90
16160;DHT22;8185;57.818;15.224;2023-02-22T03:19:39;-1.60;99.90
16160;DHT22;8185;57.818;15.224;2023-02-22T03:22:11;-1.60;99.90
16160;DHT22;8185;57.818;15.224;2023-02-22T03:24:41;-1.60;99.90
16160;DHT22;8185;57.818;15.224;2023-02-22T03:27:10;-1.60;99.90
16160;DHT22;8185;57.818;15.224;2023-02-22T03:29:41;-1.60;99.90
16160;DHT22;8185;57.818;15.224;2023-02-22T03:32:09;-1.50;99.90
16160;DHT22;8185;57.818;15.224;2023-02-22T03:34:41;-1.50;99.90
16160;DHT22;8185;57.818;15.224;2023-02-22T03:37:11;-1.60;99.90
16160;DHT22;8185;57.818;15.224;2023-02-22T03:39:41;-1.50;99.90
16160;DHT22;8185;57.818;15.224;2023-02-22T03:42:12;-1.50;99.90
16160;DHT22;8185;57.818;15.224;2023-02-22T03:44:42;-1.50;99.90
16160;DHT22;8185;57.818;15.224;2023-02-22T03:47:15;-1.50;99.90
16160;DHT22;8185;57.818;15.224;2023-02-22T03:49:50;-1.50;99.90
16160;DHT22;8185;57.818;15.224;2023-02-22T03:52:19;-1.50;99.90
16160;DHT22;8185;57.818;15.224;2023-02-22T03:54:48;-1.50;99.90
16160;DHT22;8185;57.818;15.224;2023-02-22T03:57:21;-1.50;99.90
16160;DHT22;8185;57.818;15.224;2023-02-22T03:59:51;-1.60;99.90
16160;DHT22;8185;57.818;15.224;2023-02-22T04:02:18;-1.60;99.90
16160;DHT22;8185;57.818;15.224;2023-02-22T04:04:47;-1.60;99.90
16160;DHT22;8185;57.818;15.224;2023-02-22T04:07:14;-1.60;99.90
16160;DHT22;8185;57.818;15.224;2023-02-22T04:09:42;-1.60;99.90
16160;DHT22;8185;57.818;15.224;2023-02-22T04:12:09;-1.60;99.90
16160;DHT22;8185;57.818;15.224;2023-02-22T04:14:36;-1.60;99.90
16160;DHT22;8185;57.818;15.224;2023-02-22T04:17:03;-1.60;99.90
16160;DHT22;8185;57.818;15.224;2023-02-22T04:19:30;-1.60;99.90
16160;DHT22;8185;57.818;15.224;2023-02-22T04:21:59;-1.60;99.90
16160;DHT22;8185;57.818;15.224;2023-02-22T04:24:26;-1.70;99.90
16160;DHT22;8185;57.818;15.224;2023-02-22T04:26:53;-1.60;99.90
16160;DHT22;8185;57.818;15.224;2023-02-22T04:29:21;-1.60;99.90
16160;DHT22;8185;57.818;15.224;2023-02-22T04:31:48;-1.70;99.90
16160;DHT22;8185;57.818;15.224;2023-02-22T04:34:15;-1.70;99.90
16160;DHT22;8185;57.818;15.224;2023-02-22T04:36:42;-1.70;99.90
16160;DHT22;8185;57.818;15.224;2023-02-22T04:39:12;-1.70;99.90
16160;DHT22;8185;57.818;15.224;2023-02-22T04:41:39;-1.70;99.90
16160;DHT22;8185;57.818;15.224;2023-02-22T04:44:07;-1.70;99.90
16160;DHT22;8185;57.818;15.224;2023-02-22T04:46:34;-1.70;99.90
16160;DHT22;8185;57.818;15.224;2023-02-22T04:49:01;-1.70;99.90
16160;DHT22;8185;57.818;15.224;2023-02-22T04:51:28;-1.70;99.90
16160;DHT22;8185;57.818;15.224;2023-02-22T04:53:56;-1.70;99.90
16160;DHT22;8185;57.818;15.224;2023-02-22T04:56:24;-1.70;99.90
16160;DHT22;8185;57.818;15.224;2023-02-22T04:58:51;-1.80;99.90
16160;DHT22;8185;57.818;15.224;2023-02-22T05:01:18;-1.70;99.90
16160;DHT22;8185;57.818;15.224;2023-02-22T05:03:46;-1.70;99.90
16160;DHT22;8185;57.818;15.224;2023-02-22T05:06:13;-1.80;99.90
16160;DHT22;8185;57.818;15.224;2023-02-22T05:08:40;-1.80;99.90
16160;DHT22;8185;57.818;15.224;2023-02-22T05:11:07;-1.80;99.90
16160;DHT22;8185;57.818;15.224;2023-02-22T05:13:36;-1.80;99.90
16160;DHT22;8185;57.818;15.224;2023-02-22T05:16:03;-1.80;99.90
16160;DHT22;8185;57.818;15.224;2023-02-22T05:18:31;-1.70;99.90
16160;DHT22;8185;57.818;15.224;2023-02-22T05:20:58;-1.70;99.90
16160;DHT22;8185;57.818;15.224;2023-02-22T05:23:25;-1.70;99.90
16160;DHT22;8185;57.818;15.224;2023-02-22T05:25:52;-1.80;99.90
16160;DHT22;8185;57.818;15.224;2023-02-22T05:28:19;-1.80;99.90
16160;DHT22;8185;57.818;15.224;2023-02-22T05:30:48;-1.80;99.90
16160;DHT22;8185;57.818;15.224;2023-02-22T05:33:16;-1.80;99.90
16160;DHT22;8185;57.818;15.224;2023-02-22T05:35:43;-1.80;99.90
16160;DHT22;8185;57.818;15.224;2023-02-22T05:38:12;-1.70;99.90
16160;DHT22;8185;57.818;15.224;2023-02-22T05:40:40;-1.80;99.90
16160;DHT22;8185;57.818;15.224;2023-02-22T05:43:07;-1.80;99.90
16160;DHT22;8185;57.818;15.224;2023-02-22T05:45:35;-1.80;99.90
16160;DHT22;8185;57.818;15.224;2023-02-22T05:48:04;-1.70;99.90
16160;DHT22;8185;57.818;15.224;2023-02-22T05:50:31;-1.80;99.90
16160;DHT22;8185;57.818;15.224;2023-02-22T05:52:59;-1.70;99.90
16160;DHT22;8185;57.818;15.224;2023-02-22T05:55:27;-1.70;99.90
16160;DHT22;8185;57.818;15.224;2023-02-22T05:57:54;-1.70;99.90
16160;DHT22;8185;57.818;15.224;2023-02-22T06:00:23;-1.70;99.90
16160;DHT22;8185;57.818;15.224;2023-02-22T06:02:55;-1.80;99.90
16160;DHT22;8185;57.818;15.224;2023-02-22T06:05:24;-1.80;99.90
16160;DHT22;8185;57.818;15.224;2023-02-22T06:07:51;-1.80;99.90
16160;DHT22;8185;57.818;15.224;2023-02-22T06:10:18;-1.80;99.90
16160;DHT22;8185;57.818;15.224;2023-02-22T06:12:46;-1.80;99.90
16160;DHT22;8185;57.818;15.224;2023-02-22T06:15:13;-1.80;99.90
16160;DHT22;8185;57.818;15.224;2023-02-22T06:17:41;-1.80;99.90
16160;DHT22;8185;57.818;15.224;2023-02-22T06:20:10;-1.80;99.90
16160;DHT22;8185;57.818;15.224;2023-02-22T06:22:38;-1.80;99.90
16160;DHT22;8185;57.818;15.224;2023-02-22T06:25:07;-1.80;99.90
16160;DHT22;8185;57.818;15.224;2023-02-22T06:27:35;-1.80;99.90
16160;DHT22;8185;57.818;15.224;2023-02-22T06:30:02;-1.80;99.90
16160;DHT22;8185;57.818;15.224;2023-02-22T06:32:30;-1.70;99.90
16160;DHT22;8185;57.818;15.224;2023-02-22T06:34:58;-1.80;99.90
16160;DHT22;8185;57.818;15.224;2023-02-22T06:37:25;-1.70;99.90
16160;DHT22;8185;57.818;15.224;2023-02-22T06:39:53;-1.70;99.90
16160;DHT22;8185;57.818;15.224;2023-02-22T06:42:20;-1.70;99.90
16160;DHT22;8185;57.818;15.224;2023-02-22T06:44:48;-1.70;99.90
16160;DHT22;8185;57.818;15.224;2023-02-22T06:47:15;-1.60;99.90
16160;DHT22;8185;57.818;15.224;2023-02-22T06:49:43;-1.70;99.90
16160;DHT22;8185;57.818;15.224;2023-02-22T06:52:10;-1.70;99.90
16160;DHT22;8185;57.818;15.224;2023-02-22T06:54:39;-1.70;99.90
16160;DHT22;8185;57.818;15.224;2023-02-22T06:57:07;-1.60;99.90
16160;DHT22;8185;57.818;15.224;2023-02-22T06:59:35;-1.60;99.90
16160;DHT22;8185;57.818;15.224;2023-02-22T07:02:02;-1.60;99.90
16160;DHT22;8185;57.818;15.224;2023-02-22T07:04:29;-1.60;99.90
16160;DHT22;8185;57.818;15.224;2023-02-22T07:06:56;-1.60;99.90
16160;DHT22;8185;57.818;15.224;2023-02-22T07:09:24;-1.60;99.90
16160;DHT22;8185;57.818;15.224;2023-02-22T07:11:51;-1.50;99.90
16160;DHT22;8185;57.818;15.224;2023-02-22T07:14:19;-1.50;99.90
16160;DHT22;8185;57.818;15.224;2023-02-22T07:16:46;-1.50;99.90
16160;DHT22;8185;57.818;15.224;2023-02-22T07:19:14;-1.50;99.90
16160;DHT22;8185;57.818;15.224;2023-02-22T07:21:41;-1.50;99.90
16160;DHT22;8185;57.818;15.224;2023-02-22T07:24:08;-1.50;99.90
16160;DHT22;8185;57.818;15.224;2023-02-22T07:26:38;-1.50;99.90
16160;DHT22;8185;57.818;15.224;2023-02-22T07:29:06;-1.50;99.90
16160;DHT22;8185;57.818;15.224;2023-02-22T07:31:37;-1.40;99.90
16160;DHT22;8185;57.818;15.224;2023-02-22T07:34:05;-1.40;99.90
16160;DHT22;8185;57.818;15.224;2023-02-22T07:36:32;-1.30;99.90
16160;DHT22;8185;57.818;15.224;2023-02-22T07:38:59;-1.30;99.90
16160;DHT22;8185;57.818;15.224;2023-02-22T07:41:26;-1.30;99.90
16160;DHT22;8185;57.818;15.224;2023-02-22T07:43:54;-1.20;99.90
16160;DHT22;8185;57.818;15.224;2023-02-22T07:46:21;-1.20;99.90
16160;DHT22;8185;57.818;15.224;2023-02-22T07:48:50;-1.30;99.90
16160;DHT22;8185;57.818;15.224;2023-02-22T07:51:17;-1.20;99.90
16160;DHT22;8185;57.818;15.224;2023-02-22T07:53:46;-1.20;99.90
16160;DHT22;8185;57.818;15.224;2023-02-22T07:56:14;-1.20;99.90
16160;DHT22;8185;57.818;15.224;2023-02-22T07:58:43;-1.20;99.90
16160;DHT22;8185;57.818;15.224;2023-02-22T08:01:10;-1.20;99.90
16160;DHT22;8185;57.818;15.224;2023-02-22T08:03:37;-1.30;99.90
16160;DHT22;8185;57.818;15.224;2023-02-22T08:06:06;-1.30;99.90
16160;DHT22;8185;57.818;15.224;2023-02-22T08:08:34;-1.30;99.90
16160;DHT22;8185;57.818;15.224;2023-02-22T08:11:01;-1.30;99.90
16160;DHT22;8185;57.818;15.224;2023-02-22T08:13:28;-1.20;99.90
16160;DHT22;8185;57.818;15.224;2023-02-22T08:15:56;-1.10;99.90
16160;DHT22;8185;57.818;15.224;2023-02-22T08:18:23;-1.10;99.90
16160;DHT22;8185;57.818;15.224;2023-02-22T08:20:51;-1.10;99.90
16160;DHT22;8185;57.818;15.224;2023-02-22T08:23:22;-1.10;99.90
16160;DHT22;8185;57.818;15.224;2023-02-22T08:25:51;-1.10;99.90
16160;DHT22;8185;57.818;15.224;2023-02-22T08:28:21;-1.10;99.90
16160;DHT22;8185;57.818;15.224;2023-02-22T08:30:48;-1.10;99.90
16160;DHT22;8185;57.818;15.224;2023-02-22T08:33:16;-1.10;99.90
16160;DHT22;8185;57.818;15.224;2023-02-22T08:35:45;-1.10;99.90
16160;DHT22;8185;57.818;15.224;2023-02-22T08:38:17;-1.00;99.90
16160;DHT22;8185;57.818;15.224;2023-02-22T08:40:47;-1.10;99.90
16160;DHT22;8185;57.818;15.224;2023-02-22T08:43:14;-1.00;99.90
16160;DHT22;8185;57.818;15.224;2023-02-22T08:45:42;-1.10;99.90
16160;DHT22;8185;57.818;15.224;2023-02-22T08:48:10;-1.00;99.90
16160;DHT22;8185;57.818;15.224;2023-02-22T08:50:38;-1.00;99.90
16160;DHT22;8185;57.818;15.224;2023-02-22T08:53:08;-1.00;99.90
16160;DHT22;8185;57.818;15.224;2023-02-22T08:55:38;-0.90;99.90
16160;DHT22;8185;57.818;15.224;2023-02-22T08:58:08;-0.90;99.90
16160;DHT22;8185;57.818;15.224;2023-02-22T09:00:37;-1.00;99.90
16160;DHT22;8185;57.818;15.224;2023-02-22T09:03:06;-0.90;99.90
16160;DHT22;8185;57.818;15.224;2023-02-22T09:05:34;-0.80;99.90
16160;DHT22;8185;57.818;15.224;2023-02-22T09:08:01;-0.80;99.90
16160;DHT22;8185;57.818;15.224;2023-02-22T09:10:31;-0.90;99.90
16160;DHT22;8185;57.818;15.224;2023-02-22T09:12:58;-1.00;99.90
16160;DHT22;8185;57.818;15.224;2023-02-22T09:15:29;-0.90;99.90
16160;DHT22;8185;57.818;15.224;2023-02-22T09:17:56;-0.90;99.90
16160;DHT22;8185;57.818;15.224;2023-02-22T09:20:24;-0.90;99.90
16160;DHT22;8185;57.818;15.224;2023-02-22T09:22:52;-0.80;99.90
16160;DHT22;8185;57.818;15.224;2023-02-22T09:25:20;-0.80;99.90
16160;DHT22;8185;57.818;15.224;2023-02-22T09:27:48;-0.90;99.90
16160;DHT22;8185;57.818;15.224;2023-02-22T09:30:18;-0.80;99.90
16160;DHT22;8185;57.818;15.224;2023-02-22T09:32:51;-0.70;99.90
16160;DHT22;8185;57.818;15.224;2023-02-22T09:35:18;-0.60;99.90
16160;DHT22;8185;57.818;15.224;2023-02-22T09:37:53;-0.60;99.90
16160;DHT22;8185;57.818;15.224;2023-02-22T09:40:21;-0.60;99.90
16160;DHT22;8185;57.818;15.224;2023-02-22T09:46:01;-0.50;99.90
16160;DHT22;8185;57.818;15.224;2023-02-22T09:48:35;-0.20;99.90
16160;DHT22;8185;57.818;15.224;2023-02-22T09:51:13;0.00;99.90
16160;DHT22;8185;57.818;15.224;2023-02-22T09:53:45;-0.10;99.90
16160;DHT22;8185;57.818;15.224;2023-02-22T09:56:15;-0.10;99.90
16160;DHT22;8185;57.818;15.224;2023-02-22T09:58:45;-0.20;99.90
16160;DHT22;8185;57.818;15.224;2023-02-22T10:01:21;-0.10;99.90
16160;DHT22;8185;57.818;15.224;2023-02-22T10:03:58;0.00;99.90
16160;DHT22;8185;57.818;15.224;2023-02-22T10:06:27;0.10;99.90
16160;DHT22;8185;57.818;15.224;2023-02-22T10:08:58;0.00;99.90
16160;DHT22;8185;57.818;15.224;2023-02-22T10:11:40;0.00;99.90
16160;DHT22;8185;57.818;15.224;2023-02-22T10:17:18;-0.20;99.90
16160;DHT22;8185;57.818;15.224;2023-02-22T10:20:00;0.00;99.90
16160;DHT22;8185;57.818;15.224;2023-02-22T10:22:41;0.10;99.90
16160;DHT22;8185;57.818;15.224;2023-02-22T10:25:14;0.20;99.90
16160;DHT22;8185;57.818;15.224;2023-02-22T10:27:47;0.20;99.90
16160;DHT22;8185;57.818;15.224;2023-02-22T10:30:20;0.20;99.90
16160;DHT22;8185;57.818;15.224;2023-02-22T10:32:51;0.20;99.90
16160;DHT22;8185;57.818;15.224;2023-02-22T10:35:23;0.10;99.90
16160;DHT22;8185;57.818;15.224;2023-02-22T10:37:53;0.10;99.90
16160;DHT22;8185;57.818;15.224;2023-02-22T10:40:23;-0.10;99.90
16160;DHT22;8185;57.818;15.224;2023-02-22T10:42:59;0.00;99.90
16160;DHT22;8185;57.818;15.224;2023-02-22T10:45:28;0.10;99.90
16160;DHT22;8185;57.818;15.224;2023-02-22T10:47:59;0.10;99.90
16160;DHT22;8185;57.818;15.224;2023-02-22T10:50:30;0.00;99.90
16160;DHT22;8185;57.818;15.224;2023-02-22T10:52:57;0.10;99.90
16160;DHT22;8185;57.818;15.224;2023-02-22T10:55:25;0.10;99.90
16160;DHT22;8185;57.818;15.224;2023-02-22T10:57:59;0.30;99.90
16160;DHT22;8185;57.818;15.224;2023-02-22T11:00:30;0.10;99.90
16160;DHT22;8185;57.818;15.224;2023-02-22T11:02:59;0.10;99.90
16160;DHT22;8185;57.818;15.224;2023-02-22T11:05:32;0.20;99.90
16160;DHT22;8185;57.818;15.224;2023-02-22T11:08:23;0.20;99.90
16160;DHT22;8185;57.818;15.224;2023-02-22T11:10:52;0.30;99.90
16160;DHT22;8185;57.818;15.224;2023-02-22T11:13:25;0.20;99.90
16160;DHT22;8185;57.818;15.224;2023-02-22T11:15:54;0.30;99.90
16160;DHT22;8185;57.818;15.224;2023-02-22T11:18:24;0.30;99.90
16160;DHT22;8185;57.818;15.224;2023-02-22T11:21:01;0.40;99.90
16160;DHT22;8185;57.818;15.224;2023-02-22T11:23:29;0.50;99.90
16160;DHT22;8185;57.818;15.224;2023-02-22T11:26:02;0.60;99.90
16160;DHT22;8185;57.818;15.224;2023-02-22T11:28:32;0.80;99.90
16160;DHT22;8185;57.818;15.224;2023-02-22T11:31:10;0.70;99.90
16160;DHT22;8185;57.818;15.224;2023-02-22T11:33:39;0.70;99.90
16160;DHT22;8185;57.818;15.224;2023-02-22T11:36:29;0.80;99.90
16160;DHT22;8185;57.818;15.224;2023-02-22T11:38:56;1.00;99.90
16160;DHT22;8185;57.818;15.224;2023-02-22T11:41:26;0.90;99.90
16160;DHT22;8185;57.818;15.224;2023-02-22T11:44:12;0.80;99.90
16160;DHT22;8185;57.818;15.224;2023-02-22T11:46:40;0.90;99.90
16160;DHT22;8185;57.818;15.224;2023-02-22T11:49:11;0.90;99.90
16160;DHT22;8185;57.818;15.224;2023-02-22T11:52:04;1.00;99.90
16160;DHT22;8185;57.818;15.224;2023-02-22T11:54:55;0.90;99.90
16160;DHT22;8185;57.818;15.224;2023-02-22T11:57:45;1.10;99.90
16160;DHT22;8185;57.818;15.224;2023-02-22T12:00:18;1.50;99.90
16160;DHT22;8185;57.818;15.224;2023-02-22T12:03:12;1.30;99.90
16160;DHT22;8185;57.818;15.224;2023-02-22T12:05:55;1.10;99.90
16160;DHT22;8185;57.818;15.224;2023-02-22T12:08:37;1.00;99.90
16160;DHT22;8185;57.818;15.224;2023-02-22T12:11:12;0.80;99.90
16160;DHT22;8185;57.818;15.224;2023-02-22T12:14:01;0.80;99.90
16160;DHT22;8185;57.818;15.224;2023-02-22T12:16:43;0.90;99.90
16160;DHT22;8185;57.818;15.224;2023-02-22T12:19:19;1.20;99.90
16160;DHT22;8185;57.818;15.224;2023-02-22T12:21:53;1.20;99.90
16160;DHT22;8185;57.818;15.224;2023-02-22T12:24:25;1.30;99.90
16160;DHT22;8185;57.818;15.224;2023-02-22T12:26:58;1.30;99.90
16160;DHT22;8185;57.818;15.224;2023-02-22T12:29:29;1.00;99.90
16160;DHT22;8185;57.818;15.224;2023-02-22T12:32:00;1.20;99.90
16160;DHT22;8185;57.818;15.224;2023-02-22T12:34:33;1.20;99.90
16160;DHT22;8185;57.818;15.224;2023-02-22T12:37:22;1.10;99.90
16160;DHT22;8185;57.818;15.224;2023-02-22T12:39:58;1.20;99.90
16160;DHT22;8185;57.818;15.224;2023-02-22T12:42:37;1.00;99.90
16160;DHT22;8185;57.818;15.224;2023-02-22T12:45:11;1.00;99.90
16160;DHT22;8185;57.818;15.224;2023-02-22T12:47:47;1.10;99.90
16160;DHT22;8185;57.818;15.224;2023-02-22T12:50:19;1.10;99.90
16160;DHT22;8185;57.818;15.224;2023-02-22T12:52:54;1.10;99.90
16160;DHT22;8185;57.818;15.224;2023-02-22T12:55:25;1.00;99.90
16160;DHT22;8185;57.818;15.224;2023-02-22T12:57:59;1.10;99.90
16160;DHT22;8185;57.818;15.224;2023-02-22T13:00:36;1.10;99.90
16160;DHT22;8185;57.818;15.224;2023-02-22T13:03:24;1.30;99.90
16160;DHT22;8185;57.818;15.224;2023-02-22T13:06:01;1.40;99.90
16160;DHT22;8185;57.818;15.224;2023-02-22T13:08:35;1.50;99.90
16160;DHT22;8185;57.818;15.224;2023-02-22T13:11:14;1.60;99.90
16160;DHT22;8185;57.818;15.224;2023-02-22T13:13:50;1.60;99.90
16160;DHT22;8185;57.818;15.224;2023-02-22T13:16:26;1.50;99.90
16160;DHT22;8185;57.818;15.224;2023-02-22T13:19:04;1.50;99.90
16160;DHT22;8185;57.818;15.224;2023-02-22T13:21:44;1.50;99.90
16160;DHT22;8185;57.818;15.224;2023-02-22T13:24:18;1.60;99.90
16160;DHT22;8185;57.818;15.224;2023-02-22T13:26:52;1.60;99.90
16160;DHT22;8185;57.818;15.224;2023-02-22T13:29:25;1.80;99.90
16160;DHT22;8185;57.818;15.224;2023-02-22T13:32:15;2.30;99.90
16160;DHT22;8185;57.818;15.224;2023-02-22T13:35:17;2.40;99.90
16160;DHT22;8185;57.818;15.224;2023-02-22T13:37:59;2.30;99.90
16160;DHT22;8185;57.818;15.224;2023-02-22T13:41:04;2.00;99.90
16160;DHT22;8185;57.818;15.224;2023-02-22T13:44:02;1.90;99.90
16160;DHT22;8185;57.818;15.224;2023-02-22T13:49:39;2.00;99.90
16160;DHT22;8185;57.818;15.224;2023-02-22T13:52:11;1.50;99.90
16160;DHT22;8185;57.818;15.224;2023-02-22T13:54:44;1.50;99.90
16160;DHT22;8185;57.818;15.224;2023-02-22T13:57:17;1.30;99.90
16160;DHT22;8185;57.818;15.224;2023-02-22T13:59:48;1.00;99.90
16160;DHT22;8185;57.818;15.224;2023-02-22T14:03:01;1.00;99.90
16160;DHT22;8185;57.818;15.224;2023-02-22T14:05:48;1.10;99.90
16160;DHT22;8185;57.818;15.224;2023-02-22T14:08:43;1.00;99.90
16160;DHT22;8185;57.818;15.224;2023-02-22T14:14:19;1.10;99.90
16160;DHT22;8185;57.818;15.224;2023-02-22T14:20:27;1.20;99.90
16160;DHT22;8185;57.818;15.224;2023-02-22T14:23:27;1.30;99.90
16160;DHT22;8185;57.818;15.224;2023-02-22T14:25:56;1.20;99.90
16160;DHT22;8185;57.818;15.224;2023-02-22T14:28:50;1.10;99.90
16160;DHT22;8185;57.818;15.224;2023-02-22T14:31:20;1.00;99.90
16160;DHT22;8185;57.818;15.224;2023-02-22T14:33:54;1.00;99.90
16160;DHT22;8185;57.818;15.224;2023-02-22T14:36:28;0.90;99.90
16160;DHT22;8185;57.818;15.224;2023-02-22T14:39:05;1.00;99.90
16160;DHT22;8185;57.818;15.224;2023-02-22T14:41:37;0.90;99.90
16160;DHT22;8185;57.818;15.224;2023-02-22T14:44:06;0.90;99.90
16160;DHT22;8185;57.818;15.224;2023-02-22T14:46:39;0.80;99.90
16160;DHT22;8185;57.818;15.224;2023-02-22T14:49:11;0.80;99.90
16160;DHT22;8185;57.818;15.224;2023-02-22T14:51:50;0.80;99.90
16160;DHT22;8185;57.818;15.224;2023-02-22T14:54:27;0.70;99.90
16160;DHT22;8185;57.818;15.224;2023-02-22T14:57:02;0.60;99.90
16160;DHT22;8185;57.818;15.224;2023-02-22T14:59:58;0.60;99.90
16160;DHT22;8185;57.818;15.224;2023-02-22T15:02:39;0.70;99.90
16160;DHT22;8185;57.818;15.224;2023-02-22T15:05:11;0.60;99.90
16160;DHT22;8185;57.818;15.224;2023-02-22T15:07:49;0.60;99.90
16160;DHT22;8185;57.818;15.224;2023-02-22T15:10:22;0.50;99.90
16160;DHT22;8185;57.818;15.224;2023-02-22T15:12:55;0.50;99.90
16160;DHT22;8185;57.818;15.224;2023-02-22T15:15:35;0.50;99.90
16160;DHT22;8185;57.818;15.224;2023-02-22T15:18:04;0.40;99.90
16160;DHT22;8185;57.818;15.224;2023-02-22T15:20:36;0.40;99.90
16160;DHT22;8185;57.818;15.224;2023-02-22T15:23:05;0.30;99.90
16160;DHT22;8185;57.818;15.224;2023-02-22T15:25:33;0.30;99.90
16160;DHT22;8185;57.818;15.224;2023-02-22T15:28:03;0.30;99.90
16160;DHT22;8185;57.818;15.224;2023-02-22T15:30:34;0.20;99.90
16160;DHT22;8185;57.818;15.224;2023-02-22T15:33:14;0.20;99.90
16160;DHT22;8185;57.818;15.224;2023-02-22T15:35:43;0.20;99.90
16160;DHT22;8185;57.818;15.224;2023-02-22T15:38:26;0.10;99.90
16160;DHT22;8185;57.818;15.224;2023-02-22T15:41:01;0.10;99.90
16160;DHT22;8185;57.818;15.224;2023-02-22T15:43:29;0.00;99.90
16160;DHT22;8185;57.818;15.224;2023-02-22T15:45:58;0.00;99.90
16160;DHT22;8185;57.818;15.224;2023-02-22T15:48:26;-0.10;99.90
16160;DHT22;8185;57.818;15.224;2023-02-22T15:51:02;-0.10;99.90
16160;DHT22;8185;57.818;15.224;2023-02-22T15:53:42;-0.20;99.90
16160;DHT22;8185;57.818;15.224;2023-02-22T15:56:15;-0.20;99.90
16160;DHT22;8185;57.818;15.224;2023-02-22T15:58:45;-0.20;99.90
16160;DHT22;8185;57.818;15.224;2023-02-22T16:01:15;-0.30;99.90
16160;DHT22;8185;57.818;15.224;2023-02-22T16:03:45;-0.30;99.90
16160;DHT22;8185;57.818;15.224;2023-02-22T16:06:19;-0.40;99.90
16160;DHT22;8185;57.818;15.224;2023-02-22T16:09:07;-0.40;99.90
16160;DHT22;8185;57.818;15.224;2023-02-22T16:11:36;-0.50;99.90
16160;DHT22;8185;57.818;15.224;2023-02-22T16:14:24;-0.50;99.90
16160;DHT22;8185;57.818;15.224;2023-02-22T16:17:22;-0.60;99.90
16160;DHT22;8185;57.818;15.224;2023-02-22T16:19:54;-0.60;99.90
16160;DHT22;8185;57.818;15.224;2023-02-22T16:22:29;-0.60;99.90
16160;DHT22;8185;57.818;15.224;2023-02-22T16:25:23;-0.60;99.90
16160;DHT22;8185;57.818;15.224;2023-02-22T16:27:52;-0.70;99.90